sensor_id;sensor_type;location;lat;lon;timestamp;pressure;altitude;pressure_sealevel;temperature;humidity
10706;BME280;5404;42.656;23.336;2022-12-07T00:01:19;94932.53;;;6.22;100.00
10706;BME280;5404;42.656;23.336;2022-12-07T00:03:47;94930.69;;;6.12;100.00
10706;BME280;5404;42.656;23.336;2022-12-07T00:06:14;94935.72;;;6.24;100.00
10706;BME280;5404;42.656;23.336;2022-12-07T00:08:40;94927.50;;;6.25;100.00
10706;BME280;5404;42.656;23.336;2022-12-07T00:11:17;94927.50;;;6.15;100.00
10706;BME280;5404;42.656;23.336;2022-12-07T00:13:46;94921.41;;;6.00;100.00
10706;BME280;5404;42.656;23.336;2022-12-07T00:16:15;94925.88;;;5.94;100.00
10706;BME280;5404;42.656;23.336;2022-12-07T00:18:42;94920.84;;;5.82;100.00
10706;BME280;5404;42.656;23.336;2022-12-07T00:21:27;94927.72;;;5.88;100.00
10706;BME280;5404;42.656;23.336;2022-12-07T00:23:53;94926.41;;;5.96;100.00
10706;BME280;5404;42.656;23.336;2022-12-07T00:26:24;94926.69;;;5.89;100.00
10706;BME280;5404;42.656;23.336;2022-12-07T00:28:52;94921.94;;;5.97;100.00
10706;BME280;5404;42.656;23.336;2022-12-07T00:31:20;94924.59;;;6.02;100.00
10706;BME280;5404;42.656;23.336;2022-12-07T00:33:46;94929.88;;;6.12;100.00
10706;BME280;5404;42.656;23.336;2022-12-07T00:36:14;94926.97;;;6.13;100.00
10706;BME280;5404;42.656;23.336;2022-12-07T00:38:40;94929.88;;;6.07;100.00
10706;BME280;5404;42.656;23.336;2022-12-07T00:41:17;94932.53;;;6.12;100.00
10706;BME280;5404;42.656;23.336;2022-12-07T00:43:46;94922.22;;;6.15;100.00
10706;BME280;5404;42.656;23.336;2022-12-07T00:46:14;94916.28;;;5.78;100.00
10706;BME280;5404;42.656;23.336;2022-12-07T00:48:41;94925.31;;;5.82;100.00
10706;BME280;5404;42.656;23.336;2022-12-07T00:51:08;94923.22;;;5.84;100.00
10706;BME280;5404;42.656;23.336;2022-12-07T00:53:38;94926.63;;;5.79;100.00
10706;BME280;5404;42.656;23.336;2022-12-07T00:56:15;94927.94;;;5.82;100.00
10706;BME280;5404;42.656;23.336;2022-12-07T00:58:42;94922.13;;;5.75;100.00
10706;BME280;5404;42.656;23.336;2022-12-07T01:01:09;94924.47;;;5.66;100.00
10706;BME280;5404;42.656;23.336;2022-12-07T01:03:36;94924.47;;;5.71;100.00
10706;BME280;5404;42.656;23.336;2022-12-07T01:06:02;94923.16;;;5.59;100.00
10706;BME280;5404;42.656;23.336;2022-12-07T01:08:29;94928.91;;;5.46;100.00
10706;BME280;5404;42.656;23.336;2022-12-07T01:11:06;94922.06;;;5.60;100.00
10706;BME280;5404;42.656;23.336;2022-12-07T01:13:33;94927.38;;;5.65;100.00
10706;BME280;5404;42.656;23.336;2022-12-07T01:16:01;94921.56;;;5.63;100.00
10706;BME280;5404;42.656;23.336;2022-12-07T01:18:29;94914.69;;;5.62;100.00
10706;BME280;5404;42.656;23.336;2022-12-07T01:21:31;94912.88;;;5.67;100.00
10706;BME280;5404;42.656;23.336;2022-12-07T01:24:01;94913.09;;;5.66;100.00
10706;BME280;5404;42.656;23.336;2022-12-07T01:26:27;94912.63;;;5.79;100.00
10706;BME280;5404;42.656;23.336;2022-12-07T01:28:53;94905.97;;;5.76;100.00
10706;BME280;5404;42.656;23.336;2022-12-07T01:31:22;94917.38;;;5.82;100.00
10706;BME280;5404;42.656;23.336;2022-12-07T01:33:51;94901.00;;;5.85;100.00
10706;BME280;5404;42.656;23.336;2022-12-07T01:38:44;94914.19;;;5.80;100.00
10706;BME280;5404;42.656;23.336;2022-12-07T01:41:11;94908.09;;;5.74;100.00
10706;BME280;5404;42.656;23.336;2022-12-07T01:44:28;94910.50;;;5.76;100.00
10706;BME280;5404;42.656;23.336;2022-12-07T01:46:29;94906.78;;;5.72;100.00
10706;BME280;5404;42.656;23.336;2022-12-07T01:48:56;94916.28;;;5.73;100.00
10706;BME280;5404;42.656;23.336;2022-12-07T01:51:21;94907.56;;;5.67;100.00
10706;BME280;5404;42.656;23.336;2022-12-07T01:53:47;94908.91;;;5.75;100.00
10706;BME280;5404;42.656;23.336;2022-12-07T01:56:17;94911.00;;;5.78;100.00
10706;BME280;5404;42.656;23.336;2022-12-07T01:58:44;94908.63;;;5.76;100.00
10706;BME280;5404;42.656;23.336;2022-12-07T02:01:11;94894.38;;;5.72;100.00
10706;BME280;5404;42.656;23.336;2022-12-07T02:03:42;94895.69;;;5.75;100.00
10706;BME280;5404;42.656;23.336;2022-12-07T02:06:10;94892.00;;;5.81;100.00
10706;BME280;5404;42.656;23.336;2022-12-07T02:08:38;94887.00;;;5.84;100.00
10706;BME280;5404;42.656;23.336;2022-12-07T02:11:05;94894.69;;;5.86;100.00
10706;BME280;5404;42.656;23.336;2022-12-07T02:13:35;94862.91;;;5.76;100.00
10706;BME280;5404;42.656;23.336;2022-12-07T02:29:50;94869.50;;;5.73;100.00
10706;BME280;5404;42.656;23.336;2022-12-07T02:32:27;94859.72;;;5.59;100.00
10706;BME280;5404;42.656;23.336;2022-12-07T02:35:08;94873.97;;;5.63;100.00
10706;BME280;5404;42.656;23.336;2022-12-07T02:37:41;94871.88;;;5.70;100.00
10706;BME280;5404;42.656;23.336;2022-12-07T02:40:35;94880.09;;;5.78;100.00
10706;BME280;5404;42.656;23.336;2022-12-07T02:43:16;94880.88;;;5.79;100.00
10706;BME280;5404;42.656;23.336;2022-12-07T02:45:44;94878.47;;;5.62;100.00
10706;BME280;5404;42.656;23.336;2022-12-07T02:48:12;94874.22;;;5.51;100.00
10706;BME280;5404;42.656;23.336;2022-12-07T02:50:44;94877.41;;;5.48;100.00
10706;BME280;5404;42.656;23.336;2022-12-07T02:56:14;94887.16;;;5.43;100.00
10706;BME280;5404;42.656;23.336;2022-12-07T03:08:13;94865.19;;;5.32;100.00
10706;BME280;5404;42.656;23.336;2022-12-07T03:11:06;94861.22;;;5.30;100.00
10706;BME280;5404;42.656;23.336;2022-12-07T03:13:59;94853.78;;;5.17;100.00
10706;BME280;5404;42.656;23.336;2022-12-07T03:16:37;94838.44;;;5.09;100.00
10706;BME280;5404;42.656;23.336;2022-12-07T03:19:10;94851.94;;;5.12;100.00
10706;BME280;5404;42.656;23.336;2022-12-07T03:21:41;94851.94;;;5.12;100.00
10706;BME280;5404;42.656;23.336;2022-12-07T03:24:21;94865.91;;;5.18;100.00
10706;BME280;5404;42.656;23.336;2022-12-07T03:26:55;94851.13;;;5.17;100.00
10706;BME280;5404;42.656;23.336;2022-12-07T03:32:48;94862.97;;;5.09;100.00
10706;BME280;5404;42.656;23.336;2022-12-07T03:35:27;94869.59;;;5.12;100.00
10706;BME280;5404;42.656;23.336;2022-12-07T03:37:57;94867.50;;;5.14;100.00
10706;BME280;5404;42.656;23.336;2022-12-07T03:40:34;94862.97;;;5.04;100.00
10706;BME280;5404;42.656;23.336;2022-12-07T03:43:00;94853.47;;;5.03;100.00
10706;BME280;5404;42.656;23.336;2022-12-07T03:46:00;94850.56;;;5.00;100.00
10706;BME280;5404;42.656;23.336;2022-12-07T03:48:49;94858.72;;;4.93;100.00
10706;BME280;5404;42.656;23.336;2022-12-07T03:51:28;94854.50;;;4.97;100.00
10706;BME280;5404;42.656;23.336;2022-12-07T03:54:19;94856.91;;;4.99;100.00
10706;BME280;5404;42.656;23.336;2022-12-07T03:56:46;94860.03;;;5.01;100.00
10706;BME280;5404;42.656;23.336;2022-12-07T03:59:14;94855.56;;;4.96;100.00
10706;BME280;5404;42.656;23.336;2022-12-07T04:01:44;94849.44;;;4.91;100.00
10706;BME280;5404;42.656;23.336;2022-12-07T04:04:10;94850.81;;;4.98;100.00
10706;BME280;5404;42.656;23.336;2022-12-07T04:06:37;94849.47;;;4.96;100.00
10706;BME280;5404;42.656;23.336;2022-12-07T04:09:05;94844.72;;;4.98;100.00
10706;BME280;5404;42.656;23.336;2022-12-07T04:11:34;94847.84;;;4.85;100.00
10706;BME280;5404;42.656;23.336;2022-12-07T04:14:03;94850.50;;;4.85;100.00
10706;BME280;5404;42.656;23.336;2022-12-07T04:16:50;94846.81;;;4.91;100.00
10706;BME280;5404;42.656;23.336;2022-12-07T04:19:18;94846.50;;;4.82;100.00
10706;BME280;5404;42.656;23.336;2022-12-07T04:21:44;94844.88;;;4.71;100.00
10706;BME280;5404;42.656;23.336;2022-12-07T04:24:13;94844.94;;;4.86;100.00
10706;BME280;5404;42.656;23.336;2022-12-07T04:26:39;94851.78;;;4.82;100.00
10706;BME280;5404;42.656;23.336;2022-12-07T04:29:04;94856.25;;;4.82;100.00
10706;BME280;5404;42.656;23.336;2022-12-07T04:31:30;94849.13;;;4.77;100.00
10706;BME280;5404;42.656;23.336;2022-12-07T04:33:56;94847.59;;;4.86;100.00
10706;BME280;5404;42.656;23.336;2022-12-07T04:36:22;94846.75;;;4.75;100.00
10706;BME280;5404;42.656;23.336;2022-12-07T04:38:47;94857.03;;;4.72;100.00
10706;BME280;5404;42.656;23.336;2022-12-07T04:41:13;94858.09;;;4.71;100.00
10706;BME280;5404;42.656;23.336;2022-12-07T04:43:40;94854.34;;;4.67;100.00
10706;BME280;5404;42.656;23.336;2022-12-07T04:46:06;94860.91;;;4.59;100.00
10706;BME280;5404;42.656;23.336;2022-12-07T04:48:32;94859.31;;;4.58;100.00
10706;BME280;5404;42.656;23.336;2022-12-07T04:50:57;94870.44;;;4.65;100.00
10706;BME280;5404;42.656;23.336;2022-12-07T04:53:24;94867.28;;;4.63;100.00
10706;BME280;5404;42.656;23.336;2022-12-07T04:55:51;94864.66;;;4.68;100.00
10706;BME280;5404;42.656;23.336;2022-12-07T04:58:16;94865.97;;;4.66;100.00
10706;BME280;5404;42.656;23.336;2022-12-07T05:00:42;94842.66;;;4.48;100.00
10706;BME280;5404;42.656;23.336;2022-12-07T05:03:08;94863.81;;;4.63;100.00
10706;BME280;5404;42.656;23.336;2022-12-07T05:05:34;94861.19;;;4.63;100.00
10706;BME280;5404;42.656;23.336;2022-12-07T05:07:59;94859.88;;;4.60;100.00
10706;BME280;5404;42.656;23.336;2022-12-07T05:10:24;94860.66;;;4.61;100.00
10706;BME280;5404;42.656;23.336;2022-12-07T05:12:50;94862.47;;;4.55;100.00
10706;BME280;5404;42.656;23.336;2022-12-07T05:15:18;94871.44;;;4.54;100.00
10706;BME280;5404;42.656;23.336;2022-12-07T05:17:46;94876.19;;;4.57;100.00
10706;BME280;5404;42.656;23.336;2022-12-07T05:20:12;94869.06;;;4.58;100.00
10706;BME280;5404;42.656;23.336;2022-12-07T05:22:37;94869.06;;;4.53;100.00
10706;BME280;5404;42.656;23.336;2022-12-07T05:25:03;94860.78;;;4.39;100.00
10706;BME280;5404;42.656;23.336;2022-12-07T05:27:28;94864.41;;;4.28;100.00
10706;BME280;5404;42.656;23.336;2022-12-07T05:29:54;94866.63;;;4.41;100.00
10706;BME280;5404;42.656;23.336;2022-12-07T05:32:19;94866.34;;;4.43;100.00
10706;BME280;5404;42.656;23.336;2022-12-07T05:34:45;94865.56;;;4.47;100.00
10706;BME280;5404;42.656;23.336;2022-12-07T05:37:10;94868.03;;;4.54;100.00
10706;BME280;5404;42.656;23.336;2022-12-07T05:39:39;94867.25;;;4.58;100.00
10706;BME280;5404;42.656;23.336;2022-12-07T05:42:10;94864.34;;;4.60;100.00
10706;BME280;5404;42.656;23.336;2022-12-07T05:44:42;94850.91;;;4.66;100.00
10706;BME280;5404;42.656;23.336;2022-12-07T05:47:09;94859.34;;;4.63;100.00
10706;BME280;5404;42.656;23.336;2022-12-07T05:49:35;94856.97;;;4.62;100.00
10706;BME280;5404;42.656;23.336;2022-12-07T05:52:01;94856.13;;;4.51;100.00
10706;BME280;5404;42.656;23.336;2022-12-07T05:54:27;94849.75;;;4.47;100.00
10706;BME280;5404;42.656;23.336;2022-12-07T05:56:52;94865.38;;;4.54;100.00
10706;BME280;5404;42.656;23.336;2022-12-07T05:59:18;94860.91;;;4.59;100.00
10706;BME280;5404;42.656;23.336;2022-12-07T06:01:57;94861.50;;;4.71;100.00
10706;BME280;5404;42.656;23.336;2022-12-07T06:04:25;94859.91;;;4.70;100.00
10706;BME280;5404;42.656;23.336;2022-12-07T06:06:51;94860.97;;;4.69;100.00
10706;BME280;5404;42.656;23.336;2022-12-07T06:09:19;94860.47;;;4.72;100.00
10706;BME280;5404;42.656;23.336;2022-12-07T06:11:45;94854.69;;;4.81;100.00
10706;BME280;5404;42.656;23.336;2022-12-07T06:14:29;94865.53;;;4.84;100.00
10706;BME280;5404;42.656;23.336;2022-12-07T06:16:55;94858.41;;;4.85;100.00
10706;BME280;5404;42.656;23.336;2022-12-07T06:19:21;94865.28;;;4.91;100.00
10706;BME280;5404;42.656;23.336;2022-12-07T06:21:46;94868.50;;;5.03;100.00
10706;BME280;5404;42.656;23.336;2022-12-07T06:24:12;94856.13;;;5.03;100.00
10706;BME280;5404;42.656;23.336;2022-12-07T06:26:38;94869.84;;;5.05;100.00
10706;BME280;5404;42.656;23.336;2022-12-07T06:29:04;94872.00;;;5.13;100.00
10706;BME280;5404;42.656;23.336;2022-12-07T06:31:31;94872.53;;;5.20;100.00
10706;BME280;5404;42.656;23.336;2022-12-07T06:34:00;94872.81;;;5.24;100.00
10706;BME280;5404;42.656;23.336;2022-12-07T06:36:29;94867.56;;;5.34;100.00
10706;BME280;5404;42.656;23.336;2022-12-07T06:38:55;94867.34;;;5.50;100.00
10706;BME280;5404;42.656;23.336;2022-12-07T06:41:20;94861.28;;;5.45;100.00
10706;BME280;5404;42.656;23.336;2022-12-07T06:43:47;94858.66;;;5.55;100.00
10706;BME280;5404;42.656;23.336;2022-12-07T06:46:15;94868.69;;;5.63;100.00
10706;BME280;5404;42.656;23.336;2022-12-07T06:48:41;94881.66;;;5.74;100.00
10706;BME280;5404;42.656;23.336;2022-12-07T06:51:08;94878.28;;;5.84;100.00
10706;BME280;5404;42.656;23.336;2022-12-07T06:53:36;94868.25;;;5.96;100.00
10706;BME280;5404;42.656;23.336;2022-12-07T06:56:03;94866.91;;;5.99;100.00
10706;BME280;5404;42.656;23.336;2022-12-07T06:58:30;94865.34;;;6.03;100.00
10706;BME280;5404;42.656;23.336;2022-12-07T07:00:56;94868.50;;;6.05;100.00
10706;BME280;5404;42.656;23.336;2022-12-07T07:03:22;94869.31;;;6.15;100.00
10706;BME280;5404;42.656;23.336;2022-12-07T07:05:47;94860.03;;;6.13;100.00
10706;BME280;5404;42.656;23.336;2022-12-07T07:08:14;94860.56;;;6.15;100.00
10706;BME280;5404;42.656;23.336;2022-12-07T07:10:39;94855.00;;;6.16;100.00
10706;BME280;5404;42.656;23.336;2022-12-07T07:13:05;94858.47;;;6.07;100.00
10706;BME280;5404;42.656;23.336;2022-12-07T07:15:32;94857.66;;;6.16;100.00
10706;BME280;5404;42.656;23.336;2022-12-07T07:17:59;94864.00;;;6.20;100.00
10706;BME280;5404;42.656;23.336;2022-12-07T07:20:25;94854.50;;;6.29;100.00
10706;BME280;5404;42.656;23.336;2022-12-07T07:22:54;94852.34;;;6.46;100.00
10706;BME280;5404;42.656;23.336;2022-12-07T07:25:20;94861.06;;;6.47;100.00
10706;BME280;5404;42.656;23.336;2022-12-07T07:27:47;94853.13;;;6.47;100.00
10706;BME280;5404;42.656;23.336;2022-12-07T07:30:13;94860.81;;;6.48;100.00
10706;BME280;5404;42.656;23.336;2022-12-07T07:32:39;94869.50;;;6.64;100.00
10706;BME280;5404;42.656;23.336;2022-12-07T07:35:05;94874.56;;;6.45;100.00
10706;BME280;5404;42.656;23.336;2022-12-07T07:37:31;94867.69;;;6.44;100.00
10706;BME280;5404;42.656;23.336;2022-12-07T07:39:57;94869.53;;;6.54;100.00
10706;BME280;5404;42.656;23.336;2022-12-07T07:42:22;94865.28;;;6.68;100.00
10706;BME280;5404;42.656;23.336;2022-12-07T07:44:47;94863.72;;;6.47;100.00
10706;BME280;5404;42.656;23.336;2022-12-07T07:47:13;94868.19;;;6.61;100.00
10706;BME280;5404;42.656;23.336;2022-12-07T07:49:40;94861.31;;;6.70;100.00
10706;BME280;5404;42.656;23.336;2022-12-07T07:52:08;94858.56;;;7.00;100.00
10706;BME280;5404;42.656;23.336;2022-12-07T07:54:33;94856.44;;;7.02;100.00
10706;BME280;5404;42.656;23.336;2022-12-07T07:57:00;94859.28;;;7.21;100.00
10706;BME280;5404;42.656;23.336;2022-12-07T07:59:27;94857.69;;;7.25;100.00
10706;BME280;5404;42.656;23.336;2022-12-07T08:01:52;94853.91;;;7.41;100.00
10706;BME280;5404;42.656;23.336;2022-12-07T08:04:18;94842.22;;;7.42;100.00
10706;BME280;5404;42.656;23.336;2022-12-07T08:06:43;94847.31;;;7.34;100.00
10706;BME280;5404;42.656;23.336;2022-12-07T08:09:09;94840.84;;;7.55;100.00
10706;BME280;5404;42.656;23.336;2022-12-07T08:11:35;94829.09;;;7.66;100.00
10706;BME280;5404;42.656;23.336;2022-12-07T08:14:02;94838.56;;;7.77;100.00
10706;BME280;5404;42.656;23.336;2022-12-07T08:16:28;94833.22;;;7.82;100.00
10706;BME280;5404;42.656;23.336;2022-12-07T08:18:54;94833.75;;;7.84;100.00
10706;BME280;5404;42.656;23.336;2022-12-07T08:21:20;94821.34;;;7.74;100.00
10706;BME280;5404;42.656;23.336;2022-12-07T08:23:45;94827.03;;;7.58;100.00
10706;BME280;5404;42.656;23.336;2022-12-07T08:26:14;94809.63;;;7.80;100.00
10706;BME280;5404;42.656;23.336;2022-12-07T08:28:39;94828.00;;;8.05;100.00
10706;BME280;5404;42.656;23.336;2022-12-07T08:31:13;94827.09;;;8.25;100.00
10706;BME280;5404;42.656;23.336;2022-12-07T08:33:41;94802.66;;;8.23;100.00
10706;BME280;5404;42.656;23.336;2022-12-07T08:36:10;94814.78;;;8.34;100.00
10706;BME280;5404;42.656;23.336;2022-12-07T08:38:37;94813.75;;;8.30;100.00
10706;BME280;5404;42.656;23.336;2022-12-07T08:41:04;94810.63;;;8.52;100.00
10706;BME280;5404;42.656;23.336;2022-12-07T08:43:30;94798.66;;;8.54;100.00
10706;BME280;5404;42.656;23.336;2022-12-07T08:46:18;94808.44;;;8.59;100.00
10706;BME280;5404;42.656;23.336;2022-12-07T08:48:56;94794.03;;;8.65;100.00
10706;BME280;5404;42.656;23.336;2022-12-07T08:51:23;94795.91;;;8.64;100.00
10706;BME280;5404;42.656;23.336;2022-12-07T08:53:51;94790.75;;;8.73;100.00
10706;BME280;5404;42.656;23.336;2022-12-07T08:56:17;94794.00;;;8.41;100.00
10706;BME280;5404;42.656;23.336;2022-12-07T08:58:43;94787.13;;;8.40;100.00
10706;BME280;5404;42.656;23.336;2022-12-07T09:01:09;94780.25;;;8.39;100.00
10706;BME280;5404;42.656;23.336;2022-12-07T09:03:34;94784.75;;;8.39;100.00
10706;BME280;5404;42.656;23.336;2022-12-07T09:06:00;94779.25;;;8.30;100.00
10706;BME280;5404;42.656;23.336;2022-12-07T09:08:33;94783.06;;;8.48;100.00
10706;BME280;5404;42.656;23.336;2022-12-07T09:11:01;94776.03;;;8.33;100.00
10706;BME280;5404;42.656;23.336;2022-12-07T09:13:27;94778.75;;;8.52;100.00
10706;BME280;5404;42.656;23.336;2022-12-07T09:15:53;94770.16;;;9.07;100.00
10706;BME280;5404;42.656;23.336;2022-12-07T09:18:20;94771.25;;;9.43;100.00
10706;BME280;5404;42.656;23.336;2022-12-07T09:20:46;94751.72;;;9.53;100.00
10706;BME280;5404;42.656;23.336;2022-12-07T09:23:12;94745.53;;;9.57;100.00
10706;BME280;5404;42.656;23.336;2022-12-07T09:25:38;94739.19;;;9.53;100.00
10706;BME280;5404;42.656;23.336;2022-12-07T09:28:03;94739.19;;;9.34;100.00
10706;BME280;5404;42.656;23.336;2022-12-07T09:30:30;94744.16;;;9.22;100.00
10706;BME280;5404;42.656;23.336;2022-12-07T09:32:57;94743.72;;;9.15;100.00
10706;BME280;5404;42.656;23.336;2022-12-07T09:35:23;94739.19;;;8.97;100.00
10706;BME280;5404;42.656;23.336;2022-12-07T09:37:49;94732.13;;;8.88;100.00
10706;BME280;5404;42.656;23.336;2022-12-07T09:40:16;94728.47;;;8.84;100.00
10706;BME280;5404;42.656;23.336;2022-12-07T09:42:44;94741.69;;;8.65;100.00
10706;BME280;5404;42.656;23.336;2022-12-07T09:45:21;94737.66;;;8.91;100.00
10706;BME280;5404;42.656;23.336;2022-12-07T09:47:48;94733.00;;;9.02;100.00
10706;BME280;5404;42.656;23.336;2022-12-07T09:50:21;94724.25;;;9.01;100.00
10706;BME280;5404;42.656;23.336;2022-12-07T09:52:48;94721.09;;;8.99;100.00
10706;BME280;5404;42.656;23.336;2022-12-07T09:55:21;94727.97;;;9.00;100.00
10706;BME280;5404;42.656;23.336;2022-12-07T09:57:51;94731.72;;;8.99;100.00
10706;BME280;5404;42.656;23.336;2022-12-07T10:00:21;94723.75;;;9.18;100.00
10706;BME280;5404;42.656;23.336;2022-12-07T10:02:58;94712.31;;;9.36;100.00
10706;BME280;5404;42.656;23.336;2022-12-07T10:05:31;94711.03;;;9.52;100.00
10706;BME280;5404;42.656;23.336;2022-12-07T10:07:57;94700.91;;;9.54;100.00
10706;BME280;5404;42.656;23.336;2022-12-07T10:10:34;94700.09;;;9.54;100.00
10706;BME280;5404;42.656;23.336;2022-12-07T10:13:09;94688.38;;;9.55;100.00
10706;BME280;5404;42.656;23.336;2022-12-07T10:18:29;94677.34;;;9.48;100.00
10706;BME280;5404;42.656;23.336;2022-12-07T10:23:34;94691.38;;;9.99;100.00
10706;BME280;5404;42.656;23.336;2022-12-07T10:26:20;94677.38;;;10.07;100.00
10706;BME280;5404;42.656;23.336;2022-12-07T10:28:47;94670.53;;;10.46;100.00
10706;BME280;5404;42.656;23.336;2022-12-07T10:31:19;94655.19;;;10.93;100.00
10706;BME280;5404;42.656;23.336;2022-12-07T10:33:56;94637.75;;;10.73;100.00
10706;BME280;5404;42.656;23.336;2022-12-07T10:36:33;94639.06;;;10.35;100.00
10706;BME280;5404;42.656;23.336;2022-12-07T10:39:12;94642.03;;;10.33;100.00
10706;BME280;5404;42.656;23.336;2022-12-07T10:41:58;94641.47;;;9.91;100.00
10706;BME280;5404;42.656;23.336;2022-12-07T10:44:29;94641.69;;;10.08;100.00
10706;BME280;5404;42.656;23.336;2022-12-07T10:47:26;94647.25;;;10.25;100.00
10706;BME280;5404;42.656;23.336;2022-12-07T11:01:13;94622.31;;;9.75;100.00
10706;BME280;5404;42.656;23.336;2022-12-07T11:06:34;94615.22;;;9.71;100.00
10706;BME280;5404;42.656;23.336;2022-12-07T11:09:39;94600.06;;;9.85;100.00
10706;BME280;5404;42.656;23.336;2022-12-07T11:15:13;94623.94;;;10.03;100.00
10706;BME280;5404;42.656;23.336;2022-12-07T11:17:48;94621.81;;;10.19;100.00
10706;BME280;5404;42.656;23.336;2022-12-07T11:20:52;94601.22;;;10.11;100.00
10706;BME280;5404;42.656;23.336;2022-12-07T11:23:48;94602.53;;;9.95;100.00
10706;BME280;5404;42.656;23.336;2022-12-07T11:32:17;94573.47;;;11.10;100.00
10706;BME280;5404;42.656;23.336;2022-12-07T11:34:54;94561.66;;;11.25;100.00
10706;BME280;5404;42.656;23.336;2022-12-07T11:37:30;94552.31;;;11.36;100.00
10706;BME280;5404;42.656;23.336;2022-12-07T11:40:30;94539.59;;;12.59;100.00
10706;BME280;5404;42.656;23.336;2022-12-07T11:43:02;94533.09;;;12.17;100.00
10706;BME280;5404;42.656;23.336;2022-12-07T11:45:37;94545.59;;;12.90;100.00
10706;BME280;5404;42.656;23.336;2022-12-07T11:48:14;94531.31;;;13.83;100.00
10706;BME280;5404;42.656;23.336;2022-12-07T11:50:53;94481.44;;;14.78;100.00
10706;BME280;5404;42.656;23.336;2022-12-07T11:53:26;94504.91;;;14.81;100.00
10706;BME280;5404;42.656;23.336;2022-12-07T11:59:11;94488.69;;;16.72;100.00
10706;BME280;5404;42.656;23.336;2022-12-07T12:01:57;94496.13;;;17.58;100.00
10706;BME280;5404;42.656;23.336;2022-12-07T12:07:12;94488.44;;;18.19;100.00
10706;BME280;5404;42.656;23.336;2022-12-07T12:10:16;94488.41;;;18.34;100.00
10706;BME280;5404;42.656;23.336;2022-12-07T12:18:40;94475.22;;;16.84;100.00
10706;BME280;5404;42.656;23.336;2022-12-07T12:21:17;94473.75;;;17.42;100.00
10706;BME280;5404;42.656;23.336;2022-12-07T12:26:23;94463.81;;;16.63;100.00
10706;BME280;5404;42.656;23.336;2022-12-07T12:29:06;94462.31;;;16.90;100.00
10706;BME280;5404;42.656;23.336;2022-12-07T12:31:48;94454.66;;;16.40;100.00
10706;BME280;5404;42.656;23.336;2022-12-07T12:34:40;94455.13;;;15.70;100.00
10706;BME280;5404;42.656;23.336;2022-12-07T12:45:32;94452.00;;;12.13;100.00
10706;BME280;5404;42.656;23.336;2022-12-07T12:48:02;94452.16;;;12.17;100.00
10706;BME280;5404;42.656;23.336;2022-12-07T12:50:37;94454.34;;;11.98;100.00
10706;BME280;5404;42.656;23.336;2022-12-07T12:53:13;94463.16;;;12.07;100.00
10706;BME280;5404;42.656;23.336;2022-12-07T13:00:46;94467.25;;;12.13;100.00
10706;BME280;5404;42.656;23.336;2022-12-07T13:03:30;94466.31;;;12.09;100.00
10706;BME280;5404;42.656;23.336;2022-12-07T13:06:20;94461.41;;;12.02;100.00
10706;BME280;5404;42.656;23.336;2022-12-07T13:08:58;94462.41;;;12.32;100.00
10706;BME280;5404;42.656;23.336;2022-12-07T13:11:39;94452.84;;;12.48;100.00
10706;BME280;5404;42.656;23.336;2022-12-07T13:17:11;94455.28;;;12.02;100.00
10706;BME280;5404;42.656;23.336;2022-12-07T13:28:02;94455.59;;;11.92;100.00
10706;BME280;5404;42.656;23.336;2022-12-07T13:30:53;94451.44;;;11.77;100.00
10706;BME280;5404;42.656;23.336;2022-12-07T13:33:22;94453.31;;;11.77;100.00
10706;BME280;5404;42.656;23.336;2022-12-07T13:35:54;94453.34;;;11.85;100.00
10706;BME280;5404;42.656;23.336;2022-12-07T13:38:31;94443.63;;;11.81;100.00
10706;BME280;5404;42.656;23.336;2022-12-07T13:41:14;94450.50;;;11.82;100.00
10706;BME280;5404;42.656;23.336;2022-12-07T13:44:09;94446.72;;;11.65;100.00
10706;BME280;5404;42.656;23.336;2022-12-07T13:49:23;94446.53;;;11.62;100.00
10706;BME280;5404;42.656;23.336;2022-12-07T13:51:48;94466.38;;;11.47;100.00
10706;BME280;5404;42.656;23.336;2022-12-07T13:54:15;94456.34;;;11.44;100.00
10706;BME280;5404;42.656;23.336;2022-12-07T13:56:43;94442.66;;;11.37;100.00
10706;BME280;5404;42.656;23.336;2022-12-07T13:59:34;94440.13;;;11.32;100.00
10706;BME280;5404;42.656;23.336;2022-12-07T14:02:16;94447.41;;;11.18;100.00
10706;BME280;5404;42.656;23.336;2022-12-07T14:04:46;94451.84;;;11.23;100.00
10706;BME280;5404;42.656;23.336;2022-12-07T14:07:48;94457.78;;;11.20;100.00
10706;BME280;5404;42.656;23.336;2022-12-07T14:10:37;94462.84;;;10.99;100.00
10706;BME280;5404;42.656;23.336;2022-12-07T14:15:58;94463.38;;;11.10;100.00
10706;BME280;5404;42.656;23.336;2022-12-07T14:18:37;94472.41;;;11.00;100.00
10706;BME280;5404;42.656;23.336;2022-12-07T14:23:40;94467.09;;;10.78;100.00
10706;BME280;5404;42.656;23.336;2022-12-07T14:28:35;94488.19;;;10.66;100.00
10706;BME280;5404;42.656;23.336;2022-12-07T14:31:02;94480.59;;;10.59;100.00
10706;BME280;5404;42.656;23.336;2022-12-07T14:33:28;94482.78;;;10.57;100.00
10706;BME280;5404;42.656;23.336;2022-12-07T14:35:54;94484.41;;;10.45;100.00
10706;BME280;5404;42.656;23.336;2022-12-07T14:38:24;94481.25;;;10.43;100.00
10706;BME280;5404;42.656;23.336;2022-12-07T14:40:53;94482.06;;;10.30;100.00
10706;BME280;5404;42.656;23.336;2022-12-07T14:43:20;94488.50;;;10.15;100.00
10706;BME280;5404;42.656;23.336;2022-12-07T14:45:46;94493.72;;;10.07;100.00
10706;BME280;5404;42.656;23.336;2022-12-07T14:48:14;94497.66;;;9.96;100.00
10706;BME280;5404;42.656;23.336;2022-12-07T14:50:51;94492.03;;;9.84;100.00
10706;BME280;5404;42.656;23.336;2022-12-07T14:53:22;94496.59;;;9.70;100.00
10706;BME280;5404;42.656;23.336;2022-12-07T14:55:50;94501.53;;;9.49;100.00
10706;BME280;5404;42.656;23.336;2022-12-07T14:58:18;94511.34;;;9.35;100.00
10706;BME280;5404;42.656;23.336;2022-12-07T15:00:44;94521.56;;;9.14;100.00
10706;BME280;5404;42.656;23.336;2022-12-07T15:03:10;94520.22;;;8.98;100.00
10706;BME280;5404;42.656;23.336;2022-12-07T15:05:37;94537.94;;;9.03;100.00
10706;BME280;5404;42.656;23.336;2022-12-07T15:08:04;94538.13;;;9.06;100.00